createdAt,value
2018-01-21T00:00:29.532Z,15.63
2018-01-21T00:02:57.901Z,17.13
2018-01-21T00:05:26.253Z,15.53
2018-01-21T00:07:55.408Z,14.33
2018-01-21T00:10:23.862Z,13.80
2018-01-21T00:12:52.232Z,14.43
2018-01-21T00:15:21.535Z,14.50
2018-01-21T00:17:49.910Z,15.20
2018-01-21T00:20:18.264Z,13.80
2018-01-21T00:22:47.417Z,14.70
2018-01-21T00:25:15.837Z,14.73
2018-01-21T00:27:44.201Z,14.93
2018-01-21T00:30:12.608Z,15.00
2018-01-21T00:32:40.970Z,15.10
2018-01-21T00:35:10.197Z,16.40
2018-01-21T00:37:38.587Z,15.83
2018-01-21T00:40:06.940Z,16.17
2018-01-21T00:42:35.316Z,14.47
2018-01-21T00:45:03.738Z,14.33
2018-01-21T00:47:32.966Z,12.07
2018-01-21T00:50:02.187Z,13.83
2018-01-21T00:52:30.548Z,15.97
2018-01-21T00:54:58.901Z,12.60
2018-01-21T00:57:27.338Z,14.40
2018-01-21T00:59:55.796Z,14.43
2018-01-21T01:02:24.221Z,17.47
2018-01-21T01:04:52.616Z,16.07
2018-01-21T01:07:20.976Z,15.93
2018-01-21T01:09:49.393Z,14.63
2018-01-21T01:12:18.032Z,15.67
2018-01-21T01:14:46.398Z,15.97
2018-01-21T01:17:14.820Z,16.30
2018-01-21T01:19:43.255Z,14.20
2018-01-21T01:22:11.618Z,15.70
2018-01-21T01:24:40.765Z,15.17
2018-01-21T01:27:09.179Z,15.47
2018-01-21T01:29:38.387Z,17.17
2018-01-21T01:32:07.590Z,16.63
2018-01-21T01:34:36.823Z,15.00
2018-01-21T01:37:05.193Z,16.17
2018-01-21T01:39:33.552Z,15.40
2018-01-21T01:42:02.755Z,17.33
2018-01-21T01:44:31.150Z,15.13
2018-01-21T01:46:59.566Z,15.10
2018-01-21T01:49:27.969Z,16.80
2018-01-21T01:51:56.327Z,15.53
2018-01-21T01:54:24.677Z,14.70
2018-01-21T01:56:53.123Z,14.03
2018-01-21T01:59:21.492Z,14.87
2018-01-21T02:01:50.676Z,14.60
2018-01-21T02:04:19.914Z,13.60
2018-01-21T02:06:48.291Z,16.10
2018-01-21T02:09:16.653Z,15.53
2018-01-21T02:11:45.862Z,15.10
2018-01-21T02:14:14.291Z,14.63
2018-01-21T02:16:42.667Z,14.73
2018-01-21T02:19:11.055Z,14.87
2018-01-21T02:21:39.408Z,13.07
2018-01-21T02:24:07.811Z,15.40
2018-01-21T02:26:36.187Z,15.90
2018-01-21T02:29:04.543Z,16.73
2018-01-21T02:31:32.891Z,15.30
2018-01-21T02:34:01.260Z,17.00
2018-01-21T02:36:29.642Z,15.50
2018-01-21T02:38:58.822Z,16.40
2018-01-21T02:41:28.062Z,16.97
2018-01-21T02:43:56.489Z,17.40
2018-01-21T02:46:24.863Z,17.07
2018-01-21T02:48:53.275Z,16.70
2018-01-21T02:51:23.110Z,15.43
2018-01-21T02:53:51.470Z,19.33
2018-01-21T02:56:20.847Z,18.93
2018-01-21T02:58:49.275Z,17.50
2018-01-21T03:01:17.684Z,17.17
2018-01-21T03:03:46.115Z,19.40
2018-01-21T03:06:14.554Z,18.17
2018-01-21T03:08:42.922Z,19.00
2018-01-21T03:11:11.292Z,18.50
2018-01-21T03:13:40.495Z,20.00
2018-01-21T03:16:08.912Z,18.37
2018-01-21T03:18:38.044Z,19.23
2018-01-21T03:21:06.491Z,20.03
2018-01-21T03:23:35.620Z,19.90
2018-01-21T03:26:04.054Z,21.40
2018-01-21T03:28:32.511Z,21.30
2018-01-21T03:31:00.935Z,21.90
2018-01-21T03:33:29.312Z,22.10
2018-01-21T03:35:58.508Z,25.33
2018-01-21T03:38:27.735Z,22.17
2018-01-21T03:40:56.184Z,20.33
2018-01-21T03:43:25.309Z,22.03
2018-01-21T03:45:53.659Z,23.03
2018-01-21T03:48:23.560Z,23.13
2018-01-21T03:50:52.751Z,21.13
2018-01-21T03:53:21.222Z,21.67
2018-01-21T03:55:49.674Z,22.80
2018-01-21T03:58:18.040Z,21.23
2018-01-21T04:00:46.463Z,22.70
2018-01-21T04:03:14.871Z,21.43
2018-01-21T04:05:44.115Z,23.57
2018-01-21T04:08:12.461Z,24.10
2018-01-21T04:10:41.613Z,23.20
2018-01-21T04:13:10.027Z,24.20
2018-01-21T04:15:39.217Z,22.23
2018-01-21T04:18:08.447Z,22.60
2018-01-21T04:20:36.808Z,23.70
2018-01-21T04:23:05.987Z,24.67
2018-01-21T04:25:35.223Z,24.33
2018-01-21T04:28:03.594Z,24.80
2018-01-21T04:30:31.962Z,22.67
2018-01-21T04:33:01.116Z,23.33
2018-01-21T04:35:29.573Z,24.77
2018-01-21T04:37:57.920Z,26.43
2018-01-21T04:40:27.074Z,24.87
2018-01-21T04:42:55.425Z,23.93
2018-01-21T04:45:23.847Z,25.17
2018-01-21T04:47:52.577Z,25.60
2018-01-21T04:50:21.001Z,24.20
2018-01-21T04:52:49.369Z,26.50
2018-01-21T04:55:17.804Z,27.30
2018-01-21T04:57:46.184Z,27.30
2018-01-21T05:00:14.568Z,25.33
2018-01-21T05:02:42.933Z,25.10
2018-01-21T05:05:12.141Z,23.63
2018-01-21T05:07:40.563Z,25.73
2018-01-21T05:10:08.940Z,23.87
2018-01-21T05:12:38.083Z,25.07
2018-01-21T05:15:07.262Z,24.90
2018-01-21T05:17:35.629Z,24.00
2018-01-21T05:20:04.066Z,28.03
2018-01-21T05:22:32.490Z,25.50
2018-01-21T05:25:00.858Z,25.07
2018-01-21T05:27:29.227Z,27.40
2018-01-21T05:29:57.589Z,26.53
2018-01-21T05:32:26.031Z,29.47
2018-01-21T05:34:55.224Z,29.00
2018-01-21T05:37:24.349Z,27.87
2018-01-21T05:39:52.784Z,26.73
2018-01-21T05:42:21.238Z,24.10
2018-01-21T05:44:49.627Z,26.33
2018-01-21T05:47:17.981Z,27.03
2018-01-21T05:49:46.369Z,24.93
2018-01-21T05:52:14.732Z,27.90
2018-01-21T05:54:43.129Z,25.03
2018-01-21T05:57:11.558Z,26.67
2018-01-21T05:59:40.697Z,25.30
2018-01-21T06:02:09.103Z,25.00
2018-01-21T06:04:37.487Z,25.40
2018-01-21T06:07:05.910Z,25.03
2018-01-21T06:09:34.378Z,26.30
2018-01-21T06:12:03.512Z,27.10
2018-01-21T06:14:31.853Z,26.07
2018-01-21T06:17:01.181Z,26.57
2018-01-21T06:19:29.608Z,24.23
2018-01-21T06:21:58.038Z,25.53
2018-01-21T06:24:26.491Z,27.33
2018-01-21T06:26:54.928Z,26.20
2018-01-21T06:29:23.296Z,23.43
2018-01-21T06:31:51.805Z,26.37
2018-01-21T06:34:20.150Z,26.30
2018-01-21T06:36:48.518Z,25.73
2018-01-21T06:39:16.888Z,27.70
2018-01-21T06:41:45.339Z,25.17
2018-01-21T06:44:14.540Z,29.10
2018-01-21T06:46:43.743Z,27.93
2018-01-21T06:49:12.898Z,29.30
2018-01-21T06:51:41.252Z,27.50
2018-01-21T06:54:09.679Z,27.80
2018-01-21T06:56:38.143Z,26.37
2018-01-21T06:59:06.509Z,26.50
2018-01-21T07:01:34.865Z,23.97
2018-01-21T07:04:03.245Z,25.37
2018-01-21T07:06:31.671Z,24.70
2018-01-21T07:09:00.099Z,24.60
2018-01-21T07:11:28.553Z,27.40
2018-01-21T07:13:57.762Z,26.50
2018-01-21T07:16:26.202Z,24.63
2018-01-21T07:18:54.577Z,26.23
2018-01-21T07:21:23.026Z,26.27
2018-01-21T07:23:51.393Z,28.17
2018-01-21T07:26:19.820Z,26.17
2018-01-21T07:28:48.242Z,28.40
2018-01-21T07:31:17.372Z,28.83
2018-01-21T07:33:45.742Z,28.20
2018-01-21T07:36:14.128Z,27.50
2018-01-21T07:38:42.560Z,28.00
2018-01-21T07:41:11.764Z,27.40
2018-01-21T07:43:40.956Z,29.70
2018-01-21T07:46:10.080Z,28.57
2018-01-21T07:48:38.432Z,25.63
2018-01-21T07:51:07.650Z,27.53
2018-01-21T07:53:36.012Z,30.10
2018-01-21T07:56:04.372Z,28.60
2018-01-21T07:58:32.825Z,28.80
2018-01-21T08:01:01.208Z,26.80
2018-01-21T08:03:29.564Z,33.80
2018-01-21T08:05:57.995Z,32.33
2018-01-21T08:08:26.427Z,33.43
2018-01-21T08:10:54.875Z,30.13
2018-01-21T08:13:24.012Z,32.43
2018-01-21T08:15:52.435Z,30.23
2018-01-21T08:18:21.736Z,29.00
2018-01-21T08:20:50.089Z,28.57
2018-01-21T08:23:18.518Z,32.00
2018-01-21T08:25:46.896Z,31.23
2018-01-21T08:28:15.255Z,32.07
2018-01-21T08:30:43.640Z,30.33
2018-01-21T08:33:12.829Z,29.50
2018-01-21T08:35:47.352Z,30.00
2018-01-21T08:38:21.956Z,30.17
2018-01-21T08:40:55.909Z,31.83
2018-01-21T08:43:24.383Z,31.87
2018-01-21T08:45:52.867Z,26.33
2018-01-21T08:48:21.327Z,27.37
2018-01-21T08:50:50.494Z,30.10
2018-01-21T08:53:18.915Z,28.57
2018-01-21T08:55:48.062Z,33.33
2018-01-21T08:58:16.516Z,34.80
2018-01-21T09:00:44.887Z,31.77
2018-01-21T09:03:13.249Z,30.00
2018-01-21T09:05:42.478Z,28.27
2018-01-21T09:08:10.899Z,28.47
2018-01-21T09:10:39.311Z,29.93
2018-01-21T09:13:07.773Z,29.67
2018-01-21T09:15:36.205Z,27.70
2018-01-21T09:18:04.625Z,30.47
2018-01-21T09:20:33.032Z,30.87
2018-01-21T09:23:02.219Z,29.90
2018-01-21T09:25:31.423Z,30.53
2018-01-21T09:28:00.639Z,27.87
2018-01-21T09:30:29.159Z,28.13
2018-01-21T09:32:57.620Z,26.33
2018-01-21T09:35:26.048Z,28.20
2018-01-21T09:37:54.445Z,25.77
2018-01-21T09:40:23.649Z,25.30
2018-01-21T09:42:52.071Z,26.60
2018-01-21T09:45:20.548Z,24.63
2018-01-21T09:47:49.888Z,24.60
2018-01-21T09:50:19.238Z,24.07
2018-01-21T09:52:47.896Z,26.60
2018-01-21T09:55:16.327Z,25.80
2018-01-21T09:57:44.744Z,26.80
2018-01-21T10:00:13.204Z,27.93
2018-01-21T10:02:41.642Z,26.00
2018-01-21T10:05:10.072Z,30.60
2018-01-21T10:07:38.473Z,28.40
2018-01-21T10:10:07.695Z,29.10
2018-01-21T10:12:36.133Z,31.47
2018-01-21T10:15:04.497Z,28.47
2018-01-21T10:17:32.900Z,30.20
2018-01-21T10:20:02.083Z,28.57
2018-01-21T10:22:30.553Z,27.57
2018-01-21T10:24:59.015Z,29.10
2018-01-21T10:27:27.509Z,30.20
2018-01-21T10:29:55.963Z,33.30
2018-01-21T10:32:24.337Z,30.37
2018-01-21T10:34:52.725Z,29.27
2018-01-21T10:37:21.126Z,30.13
2018-01-21T10:39:49.485Z,29.67
2018-01-21T10:42:17.848Z,27.90
2018-01-21T10:44:46.591Z,28.40
2018-01-21T10:47:15.019Z,29.03
2018-01-21T10:49:43.390Z,30.37
2018-01-21T10:52:11.848Z,29.40
2018-01-21T10:54:40.978Z,33.67
2018-01-21T10:57:09.425Z,34.27
2018-01-21T10:59:38.669Z,37.97
2018-01-21T11:02:07.085Z,34.53
2018-01-21T11:04:35.493Z,35.67
2018-01-21T11:07:04.685Z,35.27
2018-01-21T11:09:33.136Z,34.53
2018-01-21T11:12:01.536Z,34.93
2018-01-21T11:14:30.739Z,33.63
2018-01-21T11:16:59.983Z,34.30
2018-01-21T11:19:28.389Z,34.33
2018-01-21T11:21:56.760Z,36.90
2018-01-21T11:24:25.221Z,35.70
2018-01-21T11:26:54.374Z,36.33
2018-01-21T11:29:23.837Z,35.57
2018-01-21T11:31:52.290Z,35.80
2018-01-21T11:34:20.692Z,33.87
2018-01-21T11:36:49.163Z,34.70
2018-01-21T11:39:17.536Z,35.30
2018-01-21T11:41:45.940Z,33.10
2018-01-21T11:44:14.401Z,37.63
2018-01-21T11:46:42.835Z,37.80
2018-01-21T11:49:12.047Z,38.23
2018-01-21T11:51:40.429Z,39.80
2018-01-21T11:54:08.806Z,38.27
2018-01-21T11:56:37.168Z,37.07
2018-01-21T11:59:06.367Z,37.97
2018-01-21T12:01:35.567Z,35.97
2018-01-21T12:04:04.733Z,36.43
2018-01-21T12:06:33.090Z,35.63
2018-01-21T12:09:01.452Z,32.97
2018-01-21T12:11:29.878Z,37.40
2018-01-21T12:13:58.296Z,33.50
2018-01-21T12:16:26.669Z,35.63
2018-01-21T12:18:55.895Z,35.20
2018-01-21T12:21:24.334Z,36.43
2018-01-21T12:23:53.537Z,38.57
2018-01-21T12:26:22.925Z,36.13
2018-01-21T12:28:52.082Z,38.13
2018-01-21T12:31:20.502Z,35.13
2018-01-21T12:33:49.731Z,35.57
2018-01-21T12:36:18.117Z,34.87
2018-01-21T12:38:46.542Z,34.43
2018-01-21T12:41:14.978Z,37.30
2018-01-21T12:43:43.407Z,40.77
2018-01-21T12:46:11.800Z,38.07
2018-01-21T12:48:40.241Z,40.47
2018-01-21T12:51:08.703Z,40.67
2018-01-21T12:53:37.135Z,36.23
2018-01-21T12:56:05.506Z,38.97
2018-01-21T12:58:33.949Z,39.23
2018-01-21T13:01:02.320Z,40.63
2018-01-21T13:03:30.680Z,42.30
2018-01-21T13:05:59.079Z,38.43
2018-01-21T13:08:27.509Z,39.23
2018-01-21T13:10:55.951Z,40.97
2018-01-21T13:13:24.356Z,42.60
2018-01-21T13:15:52.722Z,50.10
2018-01-21T13:18:21.195Z,40.17
2018-01-21T13:20:49.710Z,42.60
2018-01-21T13:23:18.093Z,43.83
2018-01-21T13:25:46.460Z,38.50
2018-01-21T13:28:14.916Z,39.60
2018-01-21T13:30:43.344Z,38.20
2018-01-21T13:33:12.480Z,40.73
2018-01-21T13:35:40.881Z,40.13
2018-01-21T13:38:09.321Z,41.27
2018-01-21T13:40:37.688Z,40.00
2018-01-21T13:43:06.867Z,36.67
2018-01-21T13:45:35.232Z,40.10
2018-01-21T13:48:03.593Z,39.53
2018-01-21T13:50:32.055Z,37.93
2018-01-21T13:53:00.426Z,38.20
2018-01-21T13:55:28.879Z,36.43
2018-01-21T13:57:58.005Z,38.60
2018-01-21T14:00:26.430Z,37.87
2018-01-21T14:02:54.813Z,35.37
2018-01-21T14:05:23.180Z,39.60
2018-01-21T14:07:51.635Z,41.60
2018-01-21T14:10:20.010Z,39.03
2018-01-21T14:12:48.373Z,38.77
2018-01-21T14:15:16.816Z,38.37
2018-01-21T14:17:45.964Z,39.40
2018-01-21T14:20:14.391Z,38.90
2018-01-21T14:22:43.607Z,37.30
2018-01-21T14:25:12.792Z,40.00
2018-01-21T14:27:42.013Z,39.40
2018-01-21T14:30:10.405Z,37.57
2018-01-21T14:32:38.776Z,41.03
2018-01-21T14:35:07.160Z,36.93
2018-01-21T14:37:35.516Z,35.43
2018-01-21T14:40:04.707Z,35.00
2018-01-21T14:42:33.933Z,34.90
2018-01-21T14:45:02.306Z,35.30
2018-01-21T14:47:30.690Z,38.20
2018-01-21T14:49:59.062Z,38.63
2018-01-21T14:52:27.492Z,39.77
2018-01-21T14:54:55.968Z,39.80
2018-01-21T14:57:24.332Z,40.80
2018-01-21T14:59:52.688Z,36.17
2018-01-21T15:02:21.119Z,38.37
2018-01-21T15:04:49.508Z,40.37
2018-01-21T15:07:17.877Z,39.17
2018-01-21T15:09:46.302Z,41.60
2018-01-21T15:12:14.747Z,42.70
2018-01-21T15:14:43.930Z,41.70
2018-01-21T15:17:12.364Z,40.57
2018-01-21T15:19:40.807Z,38.93
2018-01-21T15:22:09.976Z,38.13
2018-01-21T15:24:38.402Z,43.10
2018-01-21T15:27:07.545Z,42.57
2018-01-21T15:29:35.991Z,38.07
2018-01-21T15:32:04.444Z,38.50
2018-01-21T15:34:33.594Z,41.53
2018-01-21T15:37:01.984Z,40.20
2018-01-21T15:39:30.419Z,39.80
2018-01-21T15:41:58.835Z,38.60
2018-01-21T15:44:27.275Z,37.90
2018-01-21T15:46:55.722Z,38.30
2018-01-21T15:49:24.168Z,38.23
2018-01-21T15:51:52.557Z,41.37
2018-01-21T15:54:21.036Z,39.17
2018-01-21T15:56:49.466Z,38.97
2018-01-21T15:59:18.616Z,41.30
2018-01-21T16:01:47.589Z,41.50
2018-01-21T16:04:15.967Z,40.30
2018-01-21T16:06:44.382Z,41.77
2018-01-21T16:09:12.865Z,40.70
2018-01-21T16:11:41.299Z,44.57
2018-01-21T16:14:09.719Z,41.33
2018-01-21T16:16:38.069Z,43.10
2018-01-21T16:19:06.429Z,42.20
2018-01-21T16:21:34.845Z,43.30
2018-01-21T16:24:03.225Z,43.90
2018-01-21T16:26:31.612Z,43.60
2018-01-21T16:29:00.084Z,45.70
2018-01-21T16:31:28.532Z,44.07
2018-01-21T16:33:56.981Z,44.73
2018-01-21T16:36:28.021Z,45.03
2018-01-21T16:39:01.117Z,40.87
2018-01-21T16:41:29.497Z,41.30
2018-01-21T16:43:57.968Z,44.40
2018-01-21T16:46:26.496Z,40.10
2018-01-21T16:48:54.943Z,41.93
2018-01-21T16:51:24.101Z,43.77
2018-01-21T16:53:52.529Z,43.07
2018-01-21T16:56:21.786Z,43.23
2018-01-21T16:58:50.252Z,45.63
2018-01-21T17:01:18.630Z,43.97
2018-01-21T17:03:46.996Z,47.90
2018-01-21T17:06:15.517Z,45.77
2018-01-21T17:08:43.955Z,42.40
2018-01-21T17:11:12.353Z,40.50
2018-01-21T17:13:40.934Z,36.67
2018-01-21T17:16:09.301Z,43.43
2018-01-21T17:18:37.731Z,39.93
2018-01-21T17:21:06.132Z,36.97
2018-01-21T17:23:35.262Z,39.10
2018-01-21T17:26:03.618Z,40.97
2018-01-21T17:28:32.283Z,43.50
2018-01-21T17:31:01.500Z,41.13
2018-01-21T17:33:29.959Z,44.90
2018-01-21T17:35:59.299Z,40.93
2018-01-21T17:38:27.726Z,40.90
2018-01-21T17:40:56.339Z,38.40
2018-01-21T17:43:24.771Z,36.60
2018-01-21T17:45:53.213Z,42.93
2018-01-21T17:48:21.682Z,41.23
2018-01-21T17:50:50.049Z,45.80
2018-01-21T17:53:19.185Z,41.00
2018-01-21T17:55:47.675Z,50.30
2018-01-21T17:58:16.063Z,50.90
2018-01-21T18:00:44.539Z,50.30
2018-01-21T18:03:13.023Z,52.23
2018-01-21T18:05:41.481Z,58.93
2018-01-21T18:08:09.859Z,54.47
2018-01-21T18:10:38.253Z,53.87
2018-01-21T18:13:06.689Z,50.17
2018-01-21T18:15:35.172Z,48.07
2018-01-21T18:18:04.326Z,53.63
2018-01-21T18:20:32.776Z,48.93
2018-01-21T18:23:01.212Z,48.00
2018-01-21T18:25:29.657Z,50.20
2018-01-21T18:27:58.119Z,46.67
2018-01-21T18:30:26.576Z,47.07
2018-01-21T18:32:55.717Z,45.77
2018-01-21T18:35:24.162Z,47.20
2018-01-21T18:37:52.595Z,40.83
2018-01-21T18:40:21.009Z,42.07
2018-01-21T18:42:49.369Z,44.80
2018-01-21T18:45:17.814Z,42.40
2018-01-21T18:47:46.251Z,39.50
2018-01-21T18:50:15.437Z,39.20
2018-01-21T18:52:44.644Z,42.50
2018-01-21T18:55:13.837Z,40.53
2018-01-21T18:57:42.238Z,37.70
2018-01-21T19:00:10.629Z,40.00
2018-01-21T19:02:38.995Z,38.63
2018-01-21T19:05:07.365Z,35.37
2018-01-21T19:07:35.816Z,38.10
2018-01-21T19:10:04.299Z,35.77
2018-01-21T19:12:32.738Z,34.63
2018-01-21T19:15:01.116Z,35.17
2018-01-21T19:17:29.502Z,34.27
2018-01-21T19:19:57.973Z,34.73
2018-01-21T19:22:27.101Z,33.60
2018-01-21T19:24:55.477Z,32.53
2018-01-21T19:27:23.928Z,33.30
2018-01-21T19:29:52.395Z,35.07
2018-01-21T19:32:22.702Z,31.30
2018-01-21T19:34:51.144Z,26.63
2018-01-21T19:37:19.615Z,28.63
2018-01-21T19:39:48.597Z,27.87
2018-01-21T19:42:22.531Z,39.67
2018-01-21T19:44:52.435Z,40.10
2018-01-21T19:47:20.872Z,43.20
2018-01-21T19:49:49.391Z,41.80
2018-01-21T19:52:17.846Z,37.23
2018-01-21T19:54:46.284Z,35.57
2018-01-21T19:57:14.684Z,36.33
2018-01-21T19:59:43.814Z,33.93
2018-01-21T20:02:12.615Z,35.37
2018-01-21T20:04:40.997Z,34.87
2018-01-21T20:07:09.477Z,34.87
2018-01-21T20:09:37.849Z,35.40
2018-01-21T20:12:06.280Z,30.13
2018-01-21T20:14:35.440Z,35.20
2018-01-21T20:17:03.804Z,38.63
2018-01-21T20:19:32.182Z,35.57
2018-01-21T20:22:00.617Z,36.20
2018-01-21T20:24:29.757Z,39.97
2018-01-21T20:26:58.190Z,40.43
2018-01-21T20:29:27.439Z,38.20
2018-01-21T20:31:55.804Z,36.17
2018-01-21T20:34:24.236Z,42.37
2018-01-21T20:36:52.640Z,39.30
2018-01-21T20:39:21.076Z,35.77
2018-01-21T20:41:49.532Z,35.67
2018-01-21T20:44:17.956Z,35.53
2018-01-21T20:46:46.403Z,33.73
2018-01-21T20:49:14.813Z,36.57
2018-01-21T20:51:48.583Z,42.17
2018-01-21T20:54:22.484Z,38.60
2018-01-21T20:56:50.901Z,38.43
2018-01-21T20:59:20.486Z,39.43
2018-01-21T21:01:48.963Z,38.37
2018-01-21T21:04:17.333Z,37.97
2018-01-21T21:06:45.700Z,36.77
2018-01-21T21:09:14.237Z,36.60
2018-01-21T21:11:42.617Z,37.90
2018-01-21T21:14:11.065Z,38.00
2018-01-21T21:16:39.544Z,40.40
2018-01-21T21:19:07.928Z,42.20
2018-01-21T21:21:36.360Z,42.47
2018-01-21T21:24:05.505Z,44.27
2018-01-21T21:26:33.873Z,43.03
2018-01-21T21:29:02.331Z,44.20
2018-01-21T21:31:30.730Z,44.57
2018-01-21T21:33:59.164Z,44.83
2018-01-21T21:36:28.370Z,50.87
2018-01-21T21:38:56.850Z,50.73
2018-01-21T21:41:25.351Z,54.53
2018-01-21T21:43:53.725Z,60.03
2018-01-21T21:46:22.107Z,53.83
2018-01-21T21:48:50.609Z,62.53
2018-01-21T21:51:19.009Z,61.63
2018-01-21T21:53:47.459Z,56.90
2018-01-21T21:56:15.866Z,57.60
2018-01-21T21:58:44.257Z,55.13
2018-01-21T22:01:12.738Z,56.53
2018-01-21T22:03:41.191Z,52.53
2018-01-21T22:06:09.584Z,48.67
2018-01-21T22:08:38.011Z,52.30
2018-01-21T22:11:06.404Z,53.40
2018-01-21T22:13:34.829Z,51.50
2018-01-21T22:16:03.283Z,54.40
2018-01-21T22:18:31.693Z,47.97
2018-01-21T22:21:00.122Z,50.93
2018-01-21T22:23:28.516Z,52.07
2018-01-21T22:25:56.967Z,46.97
2018-01-21T22:28:26.183Z,50.83
2018-01-21T22:30:54.557Z,52.40
2018-01-21T22:33:23.015Z,48.50
2018-01-21T22:35:52.219Z,49.20
2018-01-21T22:38:20.629Z,52.33
2018-01-21T22:40:49.015Z,48.30
2018-01-21T22:43:17.444Z,47.00
2018-01-21T22:45:46.620Z,50.83
2018-01-21T22:48:15.063Z,47.50
2018-01-21T22:50:43.494Z,47.40
2018-01-21T22:53:11.961Z,47.50
2018-01-21T22:55:40.399Z,47.23
2018-01-21T22:58:08.776Z,42.70
2018-01-21T23:00:37.167Z,51.83
2018-01-21T23:03:05.591Z,50.20
2018-01-21T23:05:34.063Z,50.43
2018-01-21T23:08:02.465Z,48.00
2018-01-21T23:10:30.824Z,49.70
2018-01-21T23:12:59.263Z,47.70
2018-01-21T23:15:27.734Z,50.83
2018-01-21T23:17:56.176Z,48.00
2018-01-21T23:20:43.108Z,46.47
2018-01-21T23:23:12.309Z,48.67
2018-01-21T23:25:40.692Z,49.80
2018-01-21T23:28:09.135Z,49.33
2018-01-21T23:30:37.596Z,47.43
2018-01-21T23:33:05.976Z,47.73
2018-01-21T23:35:34.366Z,49.57
2018-01-21T23:38:02.847Z,50.80
2018-01-21T23:40:31.229Z,51.50
2018-01-21T23:42:59.625Z,46.53
2018-01-21T23:45:28.008Z,50.30
2018-01-21T23:47:56.483Z,44.43
2018-01-21T23:50:25.723Z,51.43
2018-01-21T23:52:54.105Z,46.53
2018-01-21T23:55:22.540Z,45.10
2018-01-21T23:57:50.926Z,49.27
